Time,TemperatureF,DewpointF,PressureIn,WindDirection,WindDirectionDegrees,WindSpeedMPH,WindSpeedGustMPH,Humidity,HourlyPrecipIn,Conditions,Clouds,dailyrainin,SoftwareType,DateUTC
2013-03-23 00:00:00,37.7,19.8,29.98,West,260,0.0,0.0,48,0.00,,,0.00,Wunderground v.1.15,2013-03-23 04:00:00,
2013-03-23 00:05:00,37.3,21.3,29.98,West,260,0.0,0.0,52,0.00,,,0.00,Wunderground v.1.15,2013-03-23 04:05:00,
2013-03-23 00:09:00,36.9,20.4,29.98,West,270,0.0,0.0,51,0.00,,,0.00,Wunderground v.1.15,2013-03-23 04:09:00,
2013-03-23 00:14:00,36.8,19.9,29.98,NNW,335,0.0,0.0,50,0.00,,,0.00,Wunderground v.1.15,2013-03-23 04:14:00,
2013-03-23 00:20:00,36.6,19.2,29.99,NNW,335,0.0,0.0,49,0.00,,,0.00,Wunderground v.1.15,2013-03-23 04:20:00,
2013-03-23 00:29:00,36.3,20.3,29.99,NNW,335,0.0,0.0,52,0.00,,,0.00,Wunderground v.1.15,2013-03-23 04:29:00,
2013-03-23 00:35:00,36.1,20.2,29.99,NNW,334,0.0,0.0,52,0.00,,,0.00,Wunderground v.1.15,2013-03-23 04:35:00,
2013-03-23 00:44:00,36.1,20.6,29.99,NNW,335,0.0,0.0,53,0.00,,,0.00,Wunderground v.1.15,2013-03-23 04:44:00,
2013-03-23 00:54:00,35.9,20.0,29.98,NNW,334,0.0,0.0,52,0.00,,,0.00,Wunderground v.1.15,2013-03-23 04:54:00,
2013-03-23 00:59:00,35.7,20.2,29.98,NNW,334,0.0,0.0,53,0.00,,,0.00,Wunderground v.1.15,2013-03-23 04:59:00,
2013-03-23 01:05:00,35.7,19.3,29.98,NNW,334,0.0,0.0,51,0.00,,,0.00,Wunderground v.1.15,2013-03-23 05:05:00,
2013-03-23 01:14:00,36.3,19.4,29.98,NNW,334,0.0,0.0,50,0.00,,,0.00,Wunderground v.1.15,2013-03-23 05:14:00,
2013-03-23 01:19:00,36.5,21.0,29.98,NNW,334,0.0,0.0,53,0.00,,,0.00,Wunderground v.1.15,2013-03-23 05:19:00,
2013-03-23 01:29:00,35.7,19.3,29.98,NNW,334,0.0,0.0,51,0.00,,,0.00,Wunderground v.1.15,2013-03-23 05:29:00,
2013-03-23 01:35:00,35.5,18.7,29.97,NNW,334,0.0,0.0,50,0.00,,,0.00,Wunderground v.1.15,2013-03-23 05:35:00,
2013-03-23 01:44:00,35.0,19.1,29.97,NNW,334,0.0,0.0,52,0.00,,,0.00,Wunderground v.1.15,2013-03-23 05:44:00,
2013-03-23 01:49:00,34.5,18.7,29.98,NNW,335,0.0,0.0,52,0.00,,,0.00,Wunderground v.1.15,2013-03-23 05:49:00,
2013-03-23 01:59:00,34.4,18.1,29.98,NNW,334,0.0,0.0,51,0.00,,,0.00,Wunderground v.1.15,2013-03-23 05:59:00,
2013-03-23 02:05:00,34.2,19.3,29.98,NNW,335,0.0,0.0,54,0.00,,,0.00,Wunderground v.1.15,2013-03-23 06:05:00,
2013-03-23 02:15:00,34.1,18.3,29.98,NNW,335,0.0,0.0,52,0.00,,,0.00,Wunderground v.1.15,2013-03-23 06:15:00,
2013-03-23 02:25:00,34.1,18.7,29.98,NNW,334,0.0,0.0,53,0.00,,,0.00,Wunderground v.1.15,2013-03-23 06:25:00,
2013-03-23 02:35:00,33.8,19.3,29.99,NNW,334,0.0,0.0,55,0.00,,,0.00,Wunderground v.1.15,2013-03-23 06:35:00,
2013-03-23 02:45:00,33.5,19.5,29.98,NNW,335,0.0,0.0,56,0.00,,,0.00,Wunderground v.1.15,2013-03-23 06:45:00,
2013-03-23 02:54:00,33.5,19.0,29.98,NNW,334,0.0,0.0,55,0.00,,,0.00,Wunderground v.1.15,2013-03-23 06:54:00,
2013-03-23 03:05:00,32.4,19.7,29.98,NNW,334,0.0,0.0,59,0.00,,,0.00,Wunderground v.1.15,2013-03-23 07:05:00,
2013-03-23 03:15:00,32.4,17.6,29.98,NNW,335,0.0,0.0,54,0.00,,,0.00,Wunderground v.1.15,2013-03-23 07:15:00,
2013-03-23 03:24:00,31.1,20.3,29.98,NNW,334,0.0,0.0,64,0.00,,,0.00,Wunderground v.1.15,2013-03-23 07:24:00,
2013-03-23 03:34:00,29.8,21.2,29.98,NNW,335,0.0,0.0,70,0.00,,,0.00,Wunderground v.1.15,2013-03-23 07:34:00,
2013-03-23 03:44:00,29.5,20.6,29.98,NNW,334,0.0,0.0,69,0.00,,,0.00,Wunderground v.1.15,2013-03-23 07:44:00,
2013-03-23 03:49:00,29.6,20.7,29.98,NNW,334,0.0,0.0,69,0.00,,,0.00,Wunderground v.1.15,2013-03-23 07:49:00,
2013-03-23 03:55:00,29.7,20.1,29.98,NNW,334,0.0,0.0,67,0.00,,,0.00,Wunderground v.1.15,2013-03-23 07:55:00,
2013-03-23 04:05:00,30.2,20.2,29.97,NNW,334,0.0,0.0,66,0.00,,,0.00,Wunderground v.1.15,2013-03-23 08:05:00,
2013-03-23 04:15:00,29.5,20.6,29.97,NNW,335,0.0,0.0,69,0.00,,,0.00,Wunderground v.1.15,2013-03-23 08:15:00,
2013-03-23 04:24:00,29.7,19.4,29.97,NNW,333,0.0,0.0,65,0.00,,,0.00,Wunderground v.1.15,2013-03-23 08:24:00,
2013-03-23 04:34:00,29.4,19.8,29.97,NNW,332,0.0,0.0,67,0.00,,,0.00,Wunderground v.1.15,2013-03-23 08:34:00,
2013-03-23 04:39:00,29.3,20.4,29.97,NNW,333,0.0,0.0,69,0.00,,,0.00,Wunderground v.1.15,2013-03-23 08:39:00,
2013-03-23 04:45:00,29.1,20.2,29.97,NNW,333,0.0,0.0,69,0.00,,,0.00,Wunderground v.1.15,2013-03-23 08:45:00,
2013-03-23 04:54:00,28.8,20.2,29.97,NNW,333,0.0,0.0,70,0.00,,,0.00,Wunderground v.1.15,2013-03-23 08:54:00,
2013-03-23 05:05:00,28.3,20.4,29.97,NNW,332,0.0,0.0,72,0.00,,,0.00,Wunderground v.1.15,2013-03-23 09:05:00,
2013-03-23 05:14:00,27.9,21.0,29.97,NNW,332,0.0,0.0,75,0.00,,,0.00,Wunderground v.1.15,2013-03-23 09:14:00,
2013-03-23 05:20:00,27.4,21.7,29.97,NNW,332,0.0,0.0,79,0.00,,,0.00,Wunderground v.1.15,2013-03-23 09:20:00,
2013-03-23 05:29:00,26.8,21.8,29.98,NNW,332,0.0,0.0,81,0.00,,,0.00,Wunderground v.1.15,2013-03-23 09:29:00,
2013-03-23 05:39:00,26.5,21.5,29.99,NNW,332,0.0,0.0,81,0.00,,,0.00,Wunderground v.1.15,2013-03-23 09:39:00,
2013-03-23 05:44:00,26.4,21.1,29.99,NNW,332,0.0,0.0,80,0.00,,,0.00,Wunderground v.1.15,2013-03-23 09:44:00,
2013-03-23 05:54:00,26.4,20.2,29.99,NNW,333,0.0,0.0,77,0.00,,,0.00,Wunderground v.1.15,2013-03-23 09:54:00,
2013-03-23 05:59:00,26.7,20.5,29.99,NNW,332,0.0,0.0,77,0.00,,,0.00,Wunderground v.1.15,2013-03-23 09:59:00,
2013-03-23 06:05:00,27.0,20.1,29.99,NNW,332,0.0,0.0,75,0.00,,,0.00,Wunderground v.1.15,2013-03-23 10:05:00,
2013-03-23 06:14:00,27.0,19.8,29.99,NNW,332,0.0,0.0,74,0.00,,,0.00,Wunderground v.1.15,2013-03-23 10:14:00,
2013-03-23 06:19:00,27.0,20.4,29.99,NNW,332,0.0,0.0,76,0.00,,,0.00,Wunderground v.1.15,2013-03-23 10:19:00,
2013-03-23 06:29:00,26.7,20.1,29.99,NNW,332,0.0,0.0,76,0.00,,,0.00,Wunderground v.1.15,2013-03-23 10:29:00,
2013-03-23 06:34:00,26.7,20.5,30.00,NNW,332,0.0,0.0,77,0.00,,,0.00,Wunderground v.1.15,2013-03-23 10:34:00,
2013-03-23 06:44:00,26.3,20.1,30.00,NNW,334,0.0,0.0,77,0.00,,,0.00,Wunderground v.1.15,2013-03-23 10:44:00,
2013-03-23 06:49:00,26.2,19.7,30.00,NNW,333,0.0,0.0,76,0.00,,,0.00,Wunderground v.1.15,2013-03-23 10:49:00,
2013-03-23 06:59:00,26.0,20.7,30.00,NNW,332,0.0,0.0,80,0.00,,,0.00,Wunderground v.1.15,2013-03-23 10:59:00,
2013-03-23 07:05:00,25.7,20.4,30.01,NNW,332,0.0,0.0,80,0.00,,,0.00,Wunderground v.1.15,2013-03-23 11:05:00,
2013-03-23 07:15:00,25.5,19.6,30.00,NNW,332,0.0,0.0,78,0.00,,,0.00,Wunderground v.1.15,2013-03-23 11:15:00,
2013-03-23 07:24:00,25.5,19.9,30.01,NNW,333,0.0,0.0,79,0.00,,,0.00,Wunderground v.1.15,2013-03-23 11:24:00,
2013-03-23 07:34:00,25.7,19.8,30.01,NNW,332,0.0,0.0,78,0.00,,,0.00,Wunderground v.1.15,2013-03-23 11:34:00,
2013-03-23 07:40:00,25.8,19.9,30.00,NNW,332,0.0,0.0,78,0.00,,,0.00,Wunderground v.1.15,2013-03-23 11:40:00,
2013-03-23 07:49:00,26.1,20.5,30.00,NNW,332,0.0,0.0,79,0.00,,,0.00,Wunderground v.1.15,2013-03-23 11:49:00,
2013-03-23 07:54:00,26.3,20.4,30.00,NNW,334,0.0,0.0,78,0.00,,,0.00,Wunderground v.1.15,2013-03-23 11:54:00,
2013-03-23 08:05:00,26.8,20.6,30.01,NNW,333,0.0,0.0,77,0.00,,,0.00,Wunderground v.1.15,2013-03-23 12:05:00,
2013-03-23 08:15:00,27.4,22.9,30.01,NNW,333,0.0,0.0,83,0.00,,,0.00,Wunderground v.1.15,2013-03-23 12:15:00,
2013-03-23 08:24:00,27.8,23.6,30.01,NNW,333,0.0,0.0,84,0.00,,,0.00,Wunderground v.1.15,2013-03-23 12:24:00,
2013-03-23 08:34:00,28.1,23.9,30.00,NNW,332,0.0,0.0,84,0.00,,,0.00,Wunderground v.1.15,2013-03-23 12:34:00,
2013-03-23 08:39:00,28.2,23.7,30.00,NNW,332,0.0,0.0,83,0.00,,,0.00,Wunderground v.1.15,2013-03-23 12:39:00,
2013-03-23 08:49:00,28.5,23.4,30.01,NNW,332,0.0,0.0,81,0.00,,,0.00,Wunderground v.1.15,2013-03-23 12:49:00,
2013-03-23 08:54:00,28.8,23.7,30.01,NNW,332,0.0,0.0,81,0.00,,,0.00,Wunderground v.1.15,2013-03-23 12:54:00,
2013-03-23 09:05:00,29.7,24.0,30.01,NNW,332,0.0,0.0,79,0.00,,,0.00,Wunderground v.1.15,2013-03-23 13:05:00,
2013-03-23 09:14:00,30.9,24.5,30.03,NNW,332,0.0,0.0,77,0.00,,,0.00,Wunderground v.1.15,2013-03-23 13:14:00,
2013-03-23 09:20:00,31.9,25.2,30.03,NNW,332,0.0,0.0,76,0.00,,,0.00,Wunderground v.1.15,2013-03-23 13:20:00,
2013-03-23 09:29:00,34.4,25.6,30.04,NNW,332,0.0,0.0,70,0.00,,,0.00,Wunderground v.1.15,2013-03-23 13:29:00,
2013-03-23 09:39:00,36.2,25.9,30.03,WSW,251,0.0,0.0,66,0.00,,,0.00,Wunderground v.1.15,2013-03-23 13:39:00,
2013-03-23 09:44:00,36.9,25.5,30.04,WSW,253,0.0,0.0,63,0.00,,,0.00,Wunderground v.1.15,2013-03-23 13:44:00,
2013-03-23 09:54:00,37.9,24.4,30.03,South,183,0.0,0.0,58,0.00,,,0.00,Wunderground v.1.15,2013-03-23 13:54:00,
2013-03-23 10:00:00,38.5,24.6,30.03,South,184,0.0,0.0,57,0.00,,,0.00,Wunderground v.1.15,2013-03-23 14:00:00,
2013-03-23 10:05:00,39.0,24.2,30.03,SSW,211,0.0,0.0,55,0.00,,,0.00,Wunderground v.1.15,2013-03-23 14:05:00,
2013-03-23 10:14:00,40.3,24.5,30.02,South,183,0.0,0.0,53,0.00,,,0.00,Wunderground v.1.15,2013-03-23 14:14:00,
2013-03-23 10:20:00,40.9,23.7,30.02,South,181,0.0,0.0,50,0.00,,,0.00,Wunderground v.1.15,2013-03-23 14:20:00,
2013-03-23 10:29:00,42.3,24.0,30.01,SSW,203,0.0,0.0,48,0.00,,,0.00,Wunderground v.1.15,2013-03-23 14:29:00,
2013-03-23 10:34:00,43.1,23.7,30.01,SSE,157,0.0,0.0,46,0.00,,,0.00,Wunderground v.1.15,2013-03-23 14:34:00,
2013-03-23 10:44:00,44.2,24.2,30.01,South,186,0.0,1.0,45,0.00,,,0.00,Wunderground v.1.15,2013-03-23 14:44:00,
2013-03-23 10:50:00,45.0,24.4,30.01,NNW,343,1.0,6.0,44,0.00,,,0.00,Wunderground v.1.15,2013-03-23 14:50:00,
2013-03-23 10:59:00,46.1,24.3,30.01,NE,37,1.0,1.0,42,0.00,,,0.00,Wunderground v.1.15,2013-03-23 14:59:00,
2013-03-23 11:05:00,46.6,23.5,30.01,NNW,329,0.0,1.0,40,0.00,,,0.00,Wunderground v.1.15,2013-03-23 15:05:00,
2013-03-23 11:14:00,46.2,22.6,30.00,SSE,166,1.0,1.0,39,0.00,,,0.00,Wunderground v.1.15,2013-03-23 15:14:00,
2013-03-23 11:19:00,45.7,22.1,30.00,NNE,31,1.0,1.0,39,0.00,,,0.00,Wunderground v.1.15,2013-03-23 15:19:00,
2013-03-23 11:29:00,44.8,21.3,30.00,NNW,330,1.0,1.0,39,0.00,,,0.00,Wunderground v.1.15,2013-03-23 15:29:00,
2013-03-23 11:34:00,44.6,21.1,30.00,SE,128,0.0,1.0,39,0.00,,,0.00,Wunderground v.1.15,2013-03-23 15:34:00,
2013-03-23 11:44:00,44.2,22.0,30.00,WSW,237,0.0,1.0,41,0.00,,,0.00,Wunderground v.1.15,2013-03-23 15:44:00,
2013-03-23 11:50:00,44.2,20.8,29.99,SW,233,0.0,0.0,39,0.00,,,0.00,Wunderground v.1.15,2013-03-23 15:50:00,
2013-03-23 11:59:00,44.2,21.4,30.00,SW,222,0.0,0.0,40,0.00,,,0.00,Wunderground v.1.15,2013-03-23 15:59:00,
2013-03-23 12:05:00,44.4,21.6,30.00,SE,125,0.0,0.0,40,0.00,,,0.00,Wunderground v.1.15,2013-03-23 16:05:00,
2013-03-23 12:14:00,44.7,21.8,30.00,SE,132,0.0,0.0,40,0.00,,,0.00,Wunderground v.1.15,2013-03-23 16:14:00,
2013-03-23 12:19:00,45.0,21.5,29.99,North,4,0.0,0.0,39,0.00,,,0.00,Wunderground v.1.15,2013-03-23 16:19:00,
2013-03-23 12:24:00,45.2,22.9,29.99,North,4,0.0,1.0,41,0.00,,,0.00,Wunderground v.1.15,2013-03-23 16:24:00,
2013-03-23 12:34:00,46.3,23.9,29.98,SW,229,0.0,0.0,41,0.00,,,0.00,Wunderground v.1.15,2013-03-23 16:34:00,
2013-03-23 12:40:00,46.7,23.6,29.98,SSW,213,0.0,3.0,40,0.00,,,0.00,Wunderground v.1.15,2013-03-23 16:40:00,
2013-03-23 12:49:00,47.5,24.9,29.98,South,191,0.0,0.0,41,0.00,,,0.00,Wunderground v.1.15,2013-03-23 16:49:00,
2013-03-23 12:59:00,48.7,24.2,29.98,North,354,1.0,1.0,38,0.00,,,0.00,Wunderground v.1.15,2013-03-23 16:59:00,
2013-03-23 13:05:00,49.2,25.9,29.98,SSW,193,1.0,2.0,40,0.00,,,0.00,Wunderground v.1.15,2013-03-23 17:05:00,
2013-03-23 13:14:00,50.1,26.1,29.97,SSW,210,1.0,1.0,39,0.00,,,0.00,Wunderground v.1.15,2013-03-23 17:14:00,
2013-03-23 13:19:00,50.5,27.7,29.97,South,170,1.0,1.0,41,0.00,,,0.00,Wunderground v.1.15,2013-03-23 17:19:00,
2013-03-23 13:24:00,51.0,27.5,29.97,SW,221,1.0,2.0,40,0.00,,,0.00,Wunderground v.1.15,2013-03-23 17:24:00,
2013-03-23 13:34:00,50.6,24.6,29.96,NNW,328,1.0,2.0,36,0.00,,,0.00,Wunderground v.1.15,2013-03-23 17:34:00,
2013-03-23 13:44:00,50.1,24.8,29.95,South,189,1.0,1.0,37,0.00,,,0.00,Wunderground v.1.15,2013-03-23 17:44:00,
2013-03-23 13:49:00,50.2,24.2,29.95,NW,312,1.0,3.0,36,0.00,,,0.00,Wunderground v.1.15,2013-03-23 17:49:00,
2013-03-23 13:59:00,50.4,23.7,29.95,North,359,1.0,1.0,35,0.00,,,0.00,Wunderground v.1.15,2013-03-23 17:59:00,
2013-03-23 14:05:00,50.9,24.2,29.94,NNW,338,1.0,1.0,35,0.00,,,0.00,Wunderground v.1.15,2013-03-23 18:05:00,
2013-03-23 14:14:00,52.0,26.5,29.94,SSE,164,1.0,2.0,37,0.00,,,0.00,Wunderground v.1.15,2013-03-23 18:14:00,
2013-03-23 14:19:00,52.3,25.4,29.94,South,172,1.0,1.0,35,0.00,,,0.00,Wunderground v.1.15,2013-03-23 18:19:00,
2013-03-23 14:25:00,52.3,26.1,29.94,East,97,1.0,1.0,36,0.00,,,0.00,Wunderground v.1.15,2013-03-23 18:25:00,
2013-03-23 14:34:00,52.8,25.9,29.93,SSW,201,1.0,1.0,35,0.00,,,0.00,Wunderground v.1.15,2013-03-23 18:34:00,
2013-03-23 14:44:00,53.5,25.8,29.93,SE,140,1.0,1.0,34,0.00,,,0.00,Wunderground v.1.15,2013-03-23 18:44:00,
2013-03-23 14:49:00,53.8,24.6,29.92,ESE,106,1.0,1.0,32,0.00,,,0.00,Wunderground v.1.15,2013-03-23 18:49:00,
2013-03-23 14:59:00,54.3,25.0,29.92,West,272,1.0,5.0,32,0.00,,,0.00,Wunderground v.1.15,2013-03-23 18:59:00,
2013-03-23 15:05:00,54.6,24.5,29.91,South,170,2.0,8.0,31,0.00,,,0.00,Wunderground v.1.15,2013-03-23 19:05:00,
2013-03-23 15:14:00,54.1,24.1,29.91,South,191,2.0,2.0,31,0.00,,,0.00,Wunderground v.1.15,2013-03-23 19:14:00,
2013-03-23 15:19:00,54.7,26.8,29.91,SSW,212,1.0,2.0,34,0.00,,,0.00,Wunderground v.1.15,2013-03-23 19:19:00,
2013-03-23 15:24:00,55.4,25.2,29.91,SSW,201,1.0,2.0,31,0.00,,,0.00,Wunderground v.1.15,2013-03-23 19:24:00,
2013-03-23 15:34:00,55.9,25.7,29.90,SE,140,1.0,2.0,31,0.00,,,0.00,Wunderground v.1.15,2013-03-23 19:34:00,
2013-03-23 15:44:00,56.7,23.9,29.90,South,174,1.0,1.0,28,0.00,,,0.00,Wunderground v.1.15,2013-03-23 19:44:00,
2013-03-23 15:49:00,56.7,24.8,29.89,South,176,1.0,1.0,29,0.00,,,0.00,Wunderground v.1.15,2013-03-23 19:49:00,
2013-03-23 15:59:00,57.3,25.3,29.89,SE,130,1.0,1.0,29,0.00,,,0.00,Wunderground v.1.15,2013-03-23 19:59:00,
2013-03-23 16:05:00,57.7,24.8,29.89,SE,145,1.0,2.0,28,0.00,,,0.00,Wunderground v.1.15,2013-03-23 20:05:00,
2013-03-23 16:14:00,56.7,24.8,29.89,West,262,1.0,1.0,29,0.00,,,0.00,Wunderground v.1.15,2013-03-23 20:14:00,
2013-03-23 16:19:00,55.9,24.1,29.89,West,262,0.0,0.0,29,0.00,,,0.00,Wunderground v.1.15,2013-03-23 20:19:00,
2013-03-23 16:24:00,55.5,24.5,29.89,West,263,0.0,1.0,30,0.00,,,0.00,Wunderground v.1.15,2013-03-23 20:24:00,
2013-03-23 16:34:00,55.1,25.0,29.89,SSW,203,0.0,0.0,31,0.00,,,0.00,Wunderground v.1.15,2013-03-23 20:34:00,
2013-03-23 16:44:00,55.5,25.3,29.88,SSW,202,0.0,1.0,31,0.00,,,0.00,Wunderground v.1.15,2013-03-23 20:44:00,
2013-03-23 16:49:00,56.0,26.5,29.88,SSW,202,0.0,1.0,32,0.00,,,0.00,Wunderground v.1.15,2013-03-23 20:49:00,
2013-03-23 16:59:00,56.7,25.6,29.88,SE,132,0.0,2.0,30,0.00,,,0.00,Wunderground v.1.15,2013-03-23 20:59:00,
2013-03-23 17:05:00,56.3,25.2,29.88,NE,54,1.0,2.0,30,0.00,,,0.00,Wunderground v.1.15,2013-03-23 21:05:00,
2013-03-23 17:15:00,55.8,26.3,29.87,NNW,340,1.0,2.0,32,0.00,,,0.00,Wunderground v.1.15,2013-03-23 21:15:00,
2013-03-23 17:24:00,56.0,25.8,29.87,SW,227,1.0,1.0,31,0.00,,,0.00,Wunderground v.1.15,2013-03-23 21:24:00,
2013-03-23 17:30:00,56.0,26.5,29.87,SW,218,1.0,1.0,32,0.00,,,0.00,Wunderground v.1.15,2013-03-23 21:30:00,
2013-03-23 17:39:00,56.1,23.4,29.87,NW,318,1.0,1.0,28,0.00,,,0.00,Wunderground v.1.15,2013-03-23 21:39:00,
2013-03-23 17:49:00,56.0,25.0,29.87,ENE,61,0.0,0.0,30,0.00,,,0.00,Wunderground v.1.15,2013-03-23 21:49:00,
2013-03-23 17:59:00,55.8,25.6,29.87,ENE,62,0.0,0.0,31,0.00,,,0.00,Wunderground v.1.15,2013-03-23 21:59:00,
2013-03-23 18:05:00,55.6,25.4,29.87,SSE,148,0.0,2.0,31,0.00,,,0.00,Wunderground v.1.15,2013-03-23 22:05:00,
2013-03-23 18:14:00,55.6,23.8,29.87,SSE,164,0.0,0.0,29,0.00,,,0.00,Wunderground v.1.15,2013-03-23 22:14:00,
2013-03-23 18:24:00,55.5,25.3,29.87,SSE,164,0.0,1.0,31,0.00,,,0.00,Wunderground v.1.15,2013-03-23 22:24:00,
2013-03-23 18:30:00,55.4,24.4,29.87,SSE,164,0.0,0.0,30,0.00,,,0.00,Wunderground v.1.15,2013-03-23 22:30:00,
2013-03-23 18:39:00,55.1,24.2,29.88,SSE,164,0.0,0.0,30,0.00,,,0.00,Wunderground v.1.15,2013-03-23 22:39:00,
2013-03-23 18:49:00,54.2,24.9,29.88,SSE,164,0.0,0.0,32,0.00,,,0.00,Wunderground v.1.15,2013-03-23 22:49:00,
2013-03-23 18:54:00,53.8,24.6,29.88,SSE,164,0.0,0.0,32,0.00,,,0.00,Wunderground v.1.15,2013-03-23 22:54:00,
2013-03-23 19:05:00,53.2,24.1,29.88,SSE,164,0.0,0.0,32,0.00,,,0.00,Wunderground v.1.15,2013-03-23 23:05:00,
2013-03-23 19:14:00,52.6,24.3,29.88,SSE,164,0.0,0.0,33,0.00,,,0.00,Wunderground v.1.15,2013-03-23 23:14:00,
2013-03-23 19:24:00,51.9,24.4,29.88,SSE,164,0.0,0.0,34,0.00,,,0.00,Wunderground v.1.15,2013-03-23 23:24:00,
2013-03-23 19:29:00,51.5,24.0,29.89,SSE,164,0.0,0.0,34,0.00,,,0.00,Wunderground v.1.15,2013-03-23 23:29:00,
2013-03-23 19:39:00,51.0,23.6,29.89,SSE,164,0.0,0.0,34,0.00,,,0.00,Wunderground v.1.15,2013-03-23 23:39:00,
2013-03-23 19:44:00,50.7,23.3,29.89,SSE,164,0.0,0.0,34,0.00,,,0.00,Wunderground v.1.15,2013-03-23 23:44:00,
2013-03-23 19:54:00,50.3,23.0,29.89,SSE,164,0.0,0.0,34,0.00,,,0.00,Wunderground v.1.15,2013-03-23 23:54:00,
2013-03-23 20:05:00,50.0,22.7,29.90,SSE,164,0.0,0.0,34,0.00,,,0.00,Wunderground v.1.15,2013-03-24 00:05:00,
2013-03-23 20:10:00,49.8,22.5,29.90,SSE,164,0.0,0.0,34,0.00,,,0.00,Wunderground v.1.15,2013-03-24 00:10:00,
2013-03-23 20:19:00,49.4,23.5,29.91,SSE,164,0.0,0.0,36,0.00,,,0.00,Wunderground v.1.15,2013-03-24 00:19:00,
2013-03-23 20:24:00,49.1,22.6,29.91,SSE,164,0.0,0.0,35,0.00,,,0.00,Wunderground v.1.15,2013-03-24 00:24:00,
2013-03-23 20:34:00,48.7,22.9,29.92,SSE,164,0.0,0.0,36,0.00,,,0.00,Wunderground v.1.15,2013-03-24 00:34:00,
2013-03-23 20:44:00,48.2,22.5,29.92,SSE,164,0.0,0.0,36,0.00,,,0.00,Wunderground v.1.15,2013-03-24 00:44:00,
2013-03-23 20:49:00,47.8,22.1,29.92,SSE,164,0.0,0.0,36,0.00,,,0.00,Wunderground v.1.15,2013-03-24 00:49:00,
2013-03-23 20:59:00,47.1,23.4,29.92,SSE,164,0.0,0.0,39,0.00,,,0.00,Wunderground v.1.15,2013-03-24 00:59:00,
2013-03-23 21:05:00,46.6,24.7,29.93,SSE,164,0.0,0.0,42,0.00,,,0.00,Wunderground v.1.15,2013-03-24 01:05:00,
2013-03-23 21:14:00,45.5,23.1,29.93,SSE,164,0.0,0.0,41,0.00,,,0.00,Wunderground v.1.15,2013-03-24 01:14:00,
2013-03-23 21:24:00,45.6,23.8,29.93,SSE,164,0.0,0.0,42,0.00,,,0.00,Wunderground v.1.15,2013-03-24 01:24:00,
2013-03-23 21:34:00,45.0,26.5,29.93,SSE,164,0.0,0.0,48,0.00,,,0.00,Wunderground v.1.15,2013-03-24 01:34:00,
2013-03-23 21:39:00,43.6,24.2,29.93,SSE,164,0.0,0.0,46,0.00,,,0.00,Wunderground v.1.15,2013-03-24 01:39:00,
2013-03-23 21:49:00,43.1,23.2,29.94,SSE,164,0.0,0.0,45,0.00,,,0.00,Wunderground v.1.15,2013-03-24 01:49:00,
2013-03-23 21:54:00,43.0,22.5,29.94,SSE,164,0.0,0.0,44,0.00,,,0.00,Wunderground v.1.15,2013-03-24 01:54:00,
2013-03-23 22:05:00,43.4,21.8,29.94,SSE,164,0.0,0.0,42,0.00,,,0.00,Wunderground v.1.15,2013-03-24 02:05:00,
2013-03-23 22:14:00,43.3,21.7,29.94,SSE,164,0.0,0.0,42,0.00,,,0.00,Wunderground v.1.15,2013-03-24 02:14:00,
2013-03-23 22:19:00,43.4,22.4,29.94,SSE,164,0.0,0.0,43,0.00,,,0.00,Wunderground v.1.15,2013-03-24 02:19:00,
2013-03-23 22:29:00,43.1,22.1,29.94,SSE,164,0.0,0.0,43,0.00,,,0.00,Wunderground v.1.15,2013-03-24 02:29:00,
2013-03-23 22:39:00,43.0,22.0,29.94,SSE,164,0.0,0.0,43,0.00,,,0.00,Wunderground v.1.15,2013-03-24 02:39:00,
2013-03-23 22:44:00,42.7,26.3,29.95,SSE,164,0.0,0.0,52,0.00,,,0.00,Wunderground v.1.15,2013-03-24 02:44:00,
2013-03-23 22:54:00,41.6,21.8,29.95,SSE,164,0.0,0.0,45,0.00,,,0.00,Wunderground v.1.15,2013-03-24 02:54:00,
2013-03-23 22:59:00,41.6,22.8,29.95,SSE,164,0.0,1.0,47,0.00,,,0.00,Wunderground v.1.15,2013-03-24 02:59:00,
2013-03-23 23:05:00,41.4,22.7,29.95,SSE,164,0.0,1.0,47,0.00,,,0.00,Wunderground v.1.15,2013-03-24 03:05:00,
2013-03-23 23:14:00,41.7,22.4,29.95,SSE,164,0.0,0.0,46,0.00,,,0.00,Wunderground v.1.15,2013-03-24 03:14:00,
2013-03-23 23:19:00,41.8,23.0,29.96,SSE,164,0.0,0.0,47,0.00,,,0.00,Wunderground v.1.15,2013-03-24 03:19:00,
2013-03-23 23:29:00,41.7,22.4,29.95,SSE,164,0.0,0.0,46,0.00,,,0.00,Wunderground v.1.15,2013-03-24 03:29:00,
2013-03-23 23:35:00,41.8,22.5,29.95,SSE,164,0.0,0.0,46,0.00,,,0.00,Wunderground v.1.15,2013-03-24 03:35:00,
2013-03-23 23:44:00,41.9,22.6,29.95,SSE,164,0.0,0.0,46,0.00,,,0.00,Wunderground v.1.15,2013-03-24 03:44:00,
2013-03-23 23:50:00,41.6,22.8,29.95,SSE,164,0.0,0.0,47,0.00,,,0.00,Wunderground v.1.15,2013-03-24 03:50:00,
2013-03-23 23:59:00,40.8,21.6,29.94,SSE,164,0.0,0.0,46,0.00,,,0.00,Wunderground v.1.15,2013-03-24 03:59:00,